Time;durP1;ratioP1;P1;durP2;ratioP2;P2;SDS_P1;SDS_P2;PMS_P1;PMS_P2;Temp;Humidity;BMP_temperature;BMP_pressure;BME280_temperature;BME280_humidity;BME280_pressure;Samples;Min_cycle;Max_cycle;Signal;HPM_P1;HPM_P2
2023/04/15 00:01:04;;;;;;;;;;;;;;;16.43;56.32;100205.69;5016198;28;1498;-45
2023/04/15 00:03:30;;;;;;;;;;;;;;;15.86;56.94;100207.97;5016406;28;1252;-45
2023/04/15 00:05:56;;;;;;;;;;;;;;;15.63;57.06;100210.25;5016613;28;1051;-49
2023/04/15 00:08:22;;;;;;;;;;;;;;;15.48;56.88;100202.09;5016865;28;1159;-48
2023/04/15 00:10:48;;;;;;;;;;;;;;;15.38;56.19;100198.28;5016630;28;887;-48
2023/04/15 00:13:14;;;;;;;;;;;;;;;15.26;56.08;100200.50;5017117;28;1910;-47
2023/04/15 00:15:39;;;;;;;;;;;;;;;16.43;56.54;100211.97;5016608;28;1130;-49
2023/04/15 00:18:06;;;;;;;;;;;;;;;16.99;55.41;100209.88;5016652;28;1095;-49
2023/04/15 00:20:32;;;;;;;;;;;;;;;16.12;56.76;100210.56;5016273;28;1175;-44
2023/04/15 00:22:59;;;;;;;;;;;;;;;15.82;56.79;100210.47;5023717;28;1234;-47
2023/04/15 00:25:25;;;;;;;;;;;;;;;15.64;56.77;100200.09;5016371;28;1028;-48
2023/04/15 00:27:50;;;;;;;;;;;;;;;15.50;56.38;100208.94;5016435;28;1085;-48
2023/04/15 00:30:16;;;;;;;;;;;;;;;15.38;56.34;100214.72;5016789;28;1221;-49
2023/04/15 00:32:41;;;;;;;;;;;;;;;15.90;57.21;100220.81;5019707;28;1976;-46
2023/04/15 00:35:07;;;;;;;;;;;;;;;17.14;55.26;100217.16;5020066;28;1127;-45
2023/04/15 00:37:34;;;;;;;;;;;;;;;16.29;56.68;100221.16;5020278;28;1106;-47
2023/04/15 00:40:00;;;;;;;;;;;;;;;15.88;56.73;100220.31;5020286;28;1158;-48
2023/04/15 00:42:25;;;;;;;;;;;;;;;15.67;56.58;100225.03;5020027;28;1147;-49
2023/04/15 00:44:51;;;;;;;;;;;;;;;15.52;56.24;100225.91;5020356;28;1092;-44
2023/04/15 00:47:17;;;;;;;;;;;;;;;15.42;56.42;100225.13;5026402;28;1110;-49
2023/04/15 00:49:42;;;;;;;;;;;;;;;15.35;55.94;100225.44;5018899;28;1095;-48
2023/04/15 00:52:08;;;;;;;;;;;;;;;16.53;56.31;100226.75;5019361;28;1913;-50
2023/04/15 00:54:34;;;;;;;;;;;;;;;16.38;56.69;100222.19;5020117;28;1152;-49
2023/04/15 00:57:00;;;;;;;;;;;;;;;15.88;56.99;100235.94;5019579;28;1156;-49
2023/04/15 00:59:26;;;;;;;;;;;;;;;15.67;56.88;100230.53;5019964;28;1090;-49
2023/04/15 01:01:51;;;;;;;;;;;;;;;15.52;56.79;100233.31;5001971;28;1135;-44
2023/04/15 01:04:17;;;;;;;;;;;;;;;15.38;56.67;100230.34;5035141;28;1118;-48
2023/04/15 01:06:42;;;;;;;;;;;;;;;16.55;56.45;100235.50;5019897;28;1133;-48
2023/04/15 01:09:09;;;;;;;;;;;;;;;16.54;56.15;100228.38;5021958;28;1155;-48
2023/04/15 01:11:37;;;;;;;;;;;;;;;15.90;57.07;100231.78;5008054;28;1898;-48
2023/04/15 01:14:03;;;;;;;;;;;;;;;15.71;56.85;100228.84;5019497;28;1071;-47
2023/04/15 01:16:29;;;;;;;;;;;;;;;15.57;56.49;100222.31;5017933;28;1406;-50
2023/04/15 01:18:54;;;;;;;;;;;;;;;15.44;56.26;100228.41;5019570;28;1238;-46
2023/04/15 01:21:21;;;;;;;;;;;;;;;15.31;56.53;100225.16;5020635;28;1078;-46
2023/04/15 01:23:47;;;;;;;;;;;;;;;16.08;57.16;100226.78;5019048;28;1129;-48
2023/04/15 01:26:13;;;;;;;;;;;;;;;16.86;55.38;100229.78;4998699;28;1269;-49
2023/04/15 01:28:38;;;;;;;;;;;;;;;15.99;57.09;100223.81;5016449;28;1152;-44
2023/04/15 01:31:06;;;;;;;;;;;;;;;15.70;57.02;100224.47;5012261;28;1287;-48
2023/04/15 01:33:35;;;;;;;;;;;;;;;15.56;56.63;100221.50;5021921;28;1969;-46
2023/04/15 01:36:01;;;;;;;;;;;;;;;15.40;56.46;100220.75;5023891;28;1245;-43
2023/04/15 01:38:27;;;;;;;;;;;;;;;16.25;57.09;100218.16;5010040;28;1332;-50
2023/04/15 01:40:52;;;;;;;;;;;;;;;16.97;55.12;100220.34;4999540;28;1321;-46
2023/04/15 01:43:18;;;;;;;;;;;;;;;16.17;56.71;100213.28;4997554;28;1333;-48
2023/04/15 01:45:44;;;;;;;;;;;;;;;15.82;56.99;100212.38;5045537;28;1631;-47
2023/04/15 01:48:10;;;;;;;;;;;;;;;15.68;56.75;100221.19;5001369;28;1362;-49
2023/04/15 01:50:37;;;;;;;;;;;;;;;15.57;56.39;100225.06;5017638;28;1310;-47
2023/04/15 01:53:02;;;;;;;;;;;;;;;15.42;56.41;100215.00;5008185;28;1902;-50
2023/04/15 01:55:29;;;;;;;;;;;;;;;15.42;56.37;100220.47;5007388;28;1175;-48
2023/04/15 01:57:55;;;;;;;;;;;;;;;16.81;55.88;100221.56;5021465;28;1378;-50
2023/04/15 02:00:21;;;;;;;;;;;;;;;16.23;56.89;100223.13;5014114;28;1278;-48
2023/04/15 02:02:46;;;;;;;;;;;;;;;15.83;56.85;100214.84;5014288;28;1169;-49
2023/04/15 02:05:12;;;;;;;;;;;;;;;15.64;56.60;100217.38;5016865;28;1219;-46
2023/04/15 02:07:37;;;;;;;;;;;;;;;15.49;56.50;100214.69;5018445;28;1351;-49
2023/04/15 02:10:03;;;;;;;;;;;;;;;15.40;56.34;100218.03;5024757;28;1111;-46
2023/04/15 02:12:29;;;;;;;;;;;;;;;16.06;56.86;100227.06;5022034;28;1898;-48
2023/04/15 02:14:55;;;;;;;;;;;;;;;16.86;55.66;100229.78;5017040;28;1249;-48
2023/04/15 02:17:21;;;;;;;;;;;;;;;16.02;57.02;100234.22;5017196;28;1175;-49
2023/04/15 02:19:47;;;;;;;;;;;;;;;15.75;56.81;100229.09;5017354;28;1439;-46
2023/04/15 02:22:17;;;;;;;;;;;;;;;15.62;56.62;100235.19;5016863;28;1167;-47
2023/04/15 02:24:45;;;;;;;;;;;;;;;15.46;56.62;100237.16;5017987;28;1043;-48
2023/04/15 02:27:14;;;;;;;;;;;;;;;15.92;57.03;100231.50;5008698;28;1387;-48
2023/04/15 02:29:40;;;;;;;;;;;;;;;17.16;54.88;100230.59;5005242;28;1235;-48
2023/04/15 02:32:07;;;;;;;;;;;;;;;16.24;56.51;100228.31;5045284;28;1910;-50
2023/04/15 02:34:32;;;;;;;;;;;;;;;15.88;56.99;100222.25;5023077;28;1170;-54
2023/04/15 02:36:58;;;;;;;;;;;;;;;15.69;56.71;100224.75;5016706;28;1318;-53
2023/04/15 02:39:24;;;;;;;;;;;;;;;15.56;56.63;100220.69;5005342;28;1096;-55
2023/04/15 02:41:52;;;;;;;;;;;;;;;15.40;56.39;100218.03;5018019;28;1035;-50
2023/04/15 02:44:19;;;;;;;;;;;;;;;15.33;56.15;100220.25;5016608;28;1195;-55
2023/04/15 02:46:49;;;;;;;;;;;;;;;16.40;56.52;100223.53;5025703;28;1226;-52
2023/04/15 02:49:15;;;;;;;;;;;;;;;16.45;56.35;100225.41;5021092;28;1078;-56
2023/04/15 02:51:41;;;;;;;;;;;;;;;15.86;57.11;100225.22;5017852;28;1973;-56
2023/04/15 02:54:07;;;;;;;;;;;;;;;15.66;56.75;100214.34;5015745;28;1189;-55
2023/04/15 02:56:33;;;;;;;;;;;;;;;15.48;56.73;100232.25;5016194;28;1408;-54
2023/04/15 02:58:58;;;;;;;;;;;;;;;15.39;56.45;100226.53;5024933;28;1060;-51
2023/04/15 03:01:25;;;;;;;;;;;;;;;15.34;56.28;100230.06;5011913;28;1352;-52
2023/04/15 03:03:50;;;;;;;;;;;;;;;16.64;56.21;100231.03;5000128;28;1204;-52
2023/04/15 03:06:16;;;;;;;;;;;;;;;16.39;56.54;100227.38;5016027;28;1245;-51
2023/04/15 03:08:42;;;;;;;;;;;;;;;15.83;57.30;100225.81;5016106;28;1554;-57
2023/04/15 03:11:07;;;;;;;;;;;;;;;15.63;56.92;100226.69;5017051;28;856;-51
2023/04/15 03:13:35;;;;;;;;;;;;;;;15.48;56.53;100224.81;5016164;28;1979;-49
2023/04/15 03:16:08;;;;;;;;;;;;;;;15.35;56.49;100231.72;5015855;28;1167;-55
2023/04/15 03:18:34;;;;;;;;;;;;;;;15.71;57.14;100234.34;5017292;28;1052;-56
2023/04/15 03:21:02;;;;;;;;;;;;;;;16.87;55.66;100228.63;5015849;28;1091;-56
2023/04/15 03:23:30;;;;;;;;;;;;;;;16.04;57.06;100225.69;5015779;28;1072;-56
2023/04/15 03:25:57;;;;;;;;;;;;;;;15.72;57.07;100225.03;5048787;28;1078;-51
2023/04/15 03:28:23;;;;;;;;;;;;;;;15.53;56.90;100222.06;5015523;28;1360;-52
2023/04/15 03:30:49;;;;;;;;;;;;;;;15.42;56.56;100216.91;5016119;28;1210;-52
2023/04/15 03:33:15;;;;;;;;;;;;;;;15.34;56.49;100219.13;5016948;28;1918;-55
2023/04/15 03:35:40;;;;;;;;;;;;;;;16.04;57.18;100212.78;5018891;28;921;-53
2023/04/15 03:38:06;;;;;;;;;;;;;;;16.86;55.27;100214.09;5016831;28;1076;-54
2023/04/15 03:40:32;;;;;;;;;;;;;;;16.01;57.25;100221.59;5016677;28;1126;-52
2023/04/15 03:42:57;;;;;;;;;;;;;;;15.71;57.16;100222.53;5011223;28;1207;-58
2023/04/15 03:45:23;;;;;;;;;;;;;;;15.56;56.93;100215.22;5014150;28;1151;-55
2023/04/15 03:47:48;;;;;;;;;;;;;;;15.42;56.50;100216.91;5017178;28;892;-51
2023/04/15 03:50:14;;;;;;;;;;;;;;;15.66;57.52;100215.16;5009460;28;1270;-55
2023/04/15 03:52:40;;;;;;;;;;;;;;;17.00;55.66;100224.41;5030003;28;1967;-60
2023/04/15 03:55:05;;;;;;;;;;;;;;;16.19;56.72;100222.06;5017224;28;1075;-55
2023/04/15 03:57:31;;;;;;;;;;;;;;;15.82;56.99;100234.31;5034969;28;1186;-55
2023/04/15 03:59:56;;;;;;;;;;;;;;;15.71;56.83;100234.34;5023344;28;875;-52
2023/04/15 04:02:22;;;;;;;;;;;;;;;15.47;56.55;100228.66;5029955;28;1039;-53
2023/04/15 04:04:48;;;;;;;;;;;;;;;15.34;56.45;100235.56;5028444;28;1078;-54
2023/04/15 04:07:16;;;;;;;;;;;;;;;15.22;56.30;100240.50;5035422;28;1019;-50
2023/04/15 04:09:42;;;;;;;;;;;;;;;15.83;57.48;100234.03;5035834;28;1091;-50
2023/04/15 04:12:08;;;;;;;;;;;;;;;16.97;55.61;100231.34;5030229;28;1969;-46
2023/04/15 04:14:33;;;;;;;;;;;;;;;16.08;57.01;100226.78;5028908;28;1040;-52
2023/04/15 04:16:59;;;;;;;;;;;;;;;15.70;57.29;100232.69;5023146;28;1158;-51
2023/04/15 04:19:25;;;;;;;;;;;;;;;15.55;57.03;100230.00;5023430;28;1221;-47
2023/04/15 04:21:50;;;;;;;;;;;;;;;15.41;56.88;100240.75;5016584;28;1218;-50
2023/04/15 04:24:16;;;;;;;;;;;;;;;15.32;56.25;100243.25;5017853;28;896;-46
2023/04/15 04:26:42;;;;;;;;;;;;;;;15.37;57.06;100243.22;5036295;28;1034;-46
2023/04/15 04:29:07;;;;;;;;;;;;;;;16.76;56.16;100247.97;5024681;28;1067;-50
2023/04/15 04:31:33;;;;;;;;;;;;;;;16.38;56.85;100247.72;5034054;28;1975;-46
2023/04/15 04:33:58;;;;;;;;;;;;;;;15.84;57.18;100248.56;5035756;28;1037;-46
2023/04/15 04:36:25;;;;;;;;;;;;;;;15.66;57.13;100247.25;5026793;28;1131;-50
2023/04/15 04:38:50;;;;;;;;;;;;;;;15.48;56.77;100244.00;5035251;28;1054;-52
2023/04/15 04:41:16;;;;;;;;;;;;;;;15.41;56.31;100240.75;5035806;28;1118;-49
2023/04/15 04:43:42;;;;;;;;;;;;;;;15.26;56.36;100243.53;5021474;28;1160;-49
2023/04/15 04:46:07;;;;;;;;;;;;;;;15.19;56.16;100243.81;5036200;28;1234;-46
2023/04/15 04:48:33;;;;;;;;;;;;;;;16.16;57.00;100247.28;5033617;28;902;-49
2023/04/15 04:50:59;;;;;;;;;;;;;;;17.15;55.36;100243.50;5024627;28;1103;-48
2023/04/15 04:53:25;;;;;;;;;;;;;;;16.17;57.29;100246.19;5033642;28;1979;-47
2023/04/15 04:55:51;;;;;;;;;;;;;;;15.79;57.47;100243.91;5024862;28;1028;-47
2023/04/15 04:58:16;;;;;;;;;;;;;;;15.62;57.14;100244.22;5035526;28;1110;-46
2023/04/15 05:00:42;;;;;;;;;;;;;;;15.47;56.92;100242.34;5035124;28;946;-47
2023/04/15 05:03:07;;;;;;;;;;;;;;;15.39;56.65;100249.25;5022556;28;1122;-52
2023/04/15 05:05:35;;;;;;;;;;;;;;;16.52;56.77;100247.03;5026616;28;1142;-49
2023/04/15 05:08:01;;;;;;;;;;;;;;;16.89;55.62;100242.94;5031466;28;1122;-52
2023/04/15 05:10:27;;;;;;;;;;;;;;;16.08;55.00;100249.53;5035085;28;1090;-53
2023/04/15 05:12:52;;;;;;;;;;;;;;;15.73;53.52;100243.09;5034829;28;1968;-51
2023/04/15 05:15:18;;;;;;;;;;;;;;;15.53;52.37;100243.19;5035326;28;1121;-48
2023/04/15 05:17:43;;;;;;;;;;;;;;;15.46;51.19;100237.16;5022627;28;1159;-52
2023/04/15 05:20:10;;;;;;;;;;;;;;;15.84;52.51;100237.59;5038790;28;1031;-54
2023/04/15 05:22:36;;;;;;;;;;;;;;;16.84;54.63;100240.22;5036811;28;1015;-46
2023/04/15 05:25:01;;;;;;;;;;;;;;;16.11;53.54;100239.09;5025393;28;977;-50
2023/04/15 05:27:27;;;;;;;;;;;;;;;15.81;52.09;100254.59;5034009;28;1214;-49
2023/04/15 05:29:53;;;;;;;;;;;;;;;16.47;54.06;100255.34;5025604;28;1119;-46
2023/04/15 05:32:18;;;;;;;;;;;;;;;15.91;53.12;100260.06;5038649;28;1977;-50
2023/04/15 05:34:44;;;;;;;;;;;;;;;16.03;52.35;100256.97;5038672;28;1087;-48
2023/04/15 05:37:09;;;;;;;;;;;;;;;16.54;53.54;100259.38;5038077;28;903;-50
2023/04/15 05:39:35;;;;;;;;;;;;;;;16.00;52.55;100283.03;5011832;28;1079;-48
2023/04/15 05:42:01;;;;;;;;;;;;;;;17.18;53.54;100295.13;5038439;28;1003;-50
2023/04/15 05:44:26;;;;;;;;;;;;;;;16.36;53.65;100298.50;5038407;28;1098;-50
2023/04/15 05:46:52;;;;;;;;;;;;;;;16.02;52.25;100307.41;5038528;28;1228;-50
2023/04/15 05:49:17;;;;;;;;;;;;;;;15.90;50.76;100302.28;5034618;28;865;-48
2023/04/15 05:51:43;;;;;;;;;;;;;;;15.79;49.67;100315.19;5027317;28;2478;-51
2023/04/15 05:54:09;;;;;;;;;;;;;;;16.85;52.30;100321.50;5024891;28;1115;-50
2023/04/15 05:56:34;;;;;;;;;;;;;;;16.07;52.05;100324.69;5038578;28;1007;-47
2023/04/15 05:59:00;;;;;;;;;;;;;;;15.93;50.61;100345.56;5024884;28;1150;-45
2023/04/15 06:01:26;;;;;;;;;;;;;;;16.82;51.72;100341.28;5037859;28;851;-49
2023/04/15 06:03:51;;;;;;;;;;;;;;;16.12;51.19;100342.22;5037891;28;1032;-53
2023/04/15 06:06:17;;;;;;;;;;;;;;;16.71;51.95;100360.56;5038389;28;1085;-46
2023/04/15 06:08:43;;;;;;;;;;;;;;;16.60;52.53;100357.06;5037129;28;1102;-51
2023/04/15 06:11:08;;;;;;;;;;;;;;;16.22;51.33;100358.63;5024353;28;1182;-47
2023/04/15 06:13:34;;;;;;;;;;;;;;;16.04;50.14;100336.22;5036946;28;1905;-51
2023/04/15 06:15:59;;;;;;;;;;;;;;;16.58;51.77;100350.22;5024594;28;1201;-57
2023/04/15 06:18:25;;;;;;;;;;;;;;;16.10;50.60;100356.22;5010554;28;1221;-55
2023/04/15 06:20:50;;;;;;;;;;;;;;;15.90;49.76;100348.88;5030292;28;1250;-54
2023/04/15 06:23:16;;;;;;;;;;;;;;;16.75;50.67;100353.41;5029077;28;1131;-50
2023/04/15 06:25:42;;;;;;;;;;;;;;;16.14;50.40;100348.25;5024459;28;895;-53
2023/04/15 06:28:07;;;;;;;;;;;;;;;15.90;49.47;100359.84;5028492;28;1162;-49
2023/04/15 06:30:34;;;;;;;;;;;;;;;15.99;49.91;100366.41;5017725;28;1151;-56
2023/04/15 06:33:00;;;;;;;;;;;;;;;16.62;50.88;100359.53;5022951;28;1980;-56
2023/04/15 06:35:26;;;;;;;;;;;;;;;16.07;50.45;100354.88;5028297;28;1151;-48
2023/04/15 06:37:51;;;;;;;;;;;;;;;16.97;50.95;100362.34;5024872;28;993;-49
2023/04/15 06:40:17;;;;;;;;;;;;;;;16.36;51.30;100365.16;5037132;28;1165;-47
2023/04/15 06:42:42;;;;;;;;;;;;;;;16.11;50.12;100351.56;5028924;28;1096;-45
2023/04/15 06:45:08;;;;;;;;;;;;;;;15.89;49.25;100349.97;5027790;28;1745;-50
2023/04/15 06:47:34;;;;;;;;;;;;;;;16.73;50.55;100360.28;5026472;28;1439;-53
2023/04/15 06:49:59;;;;;;;;;;;;;;;16.36;50.50;100356.91;5037359;28;1019;-57
2023/04/15 06:52:25;;;;;;;;;;;;;;;16.08;49.48;100350.19;5031913;28;1898;-53
2023/04/15 06:54:51;;;;;;;;;;;;;;;16.81;50.90;100364.34;5036438;28;1022;-57
2023/04/15 06:57:16;;;;;;;;;;;;;;;16.25;50.62;100358.88;5023837;28;1138;-56
2023/04/15 06:59:42;;;;;;;;;;;;;;;15.96;49.59;100371.63;5028179;28;1178;-55
2023/04/15 07:02:08;;;;;;;;;;;;;;;16.05;48.32;100365.28;5031072;28;1112;-54
2023/04/15 07:04:33;;;;;;;;;;;;;;;16.70;49.84;100361.66;5037006;28;1022;-59
2023/04/15 07:07:01;;;;;;;;;;;;;;;16.43;50.41;100368.41;5023739;28;1076;-56
2023/04/15 07:09:27;;;;;;;;;;;;;;;15.95;49.85;100370.81;5037024;28;1196;-56
2023/04/15 07:11:52;;;;;;;;;;;;;;;15.94;48.86;100373.84;5027310;28;1978;-55
2023/04/15 07:14:18;;;;;;;;;;;;;;;16.41;50.31;100389.81;5032195;28;1114;-56
2023/04/15 07:16:43;;;;;;;;;;;;;;;16.15;49.17;100394.59;5036056;28;1015;-56
2023/04/15 07:19:09;;;;;;;;;;;;;;;17.64;49.83;100398.31;5019157;28;1024;-58
2023/04/15 07:21:35;;;;;;;;;;;;;;;16.68;51.01;100388.59;5027892;28;1130;-58
2023/04/15 07:24:01;;;;;;;;;;;;;;;16.28;50.41;100389.63;5029822;28;1061;-58
2023/04/15 07:26:26;;;;;;;;;;;;;;;16.15;49.38;100391.03;5016864;28;1186;-55
2023/04/15 07:28:52;;;;;;;;;;;;;;;16.70;50.15;100385.56;5023313;28;1207;-56
2023/04/15 07:31:18;;;;;;;;;;;;;;;16.36;50.34;100392.59;5032146;28;1170;-57
2023/04/15 07:33:44;;;;;;;;;;;;;;;16.15;49.36;100396.53;5029228;28;1914;-57
2023/04/15 07:36:09;;;;;;;;;;;;;;;15.99;48.64;100388.34;5033597;28;1032;-57
2023/04/15 07:38:35;;;;;;;;;;;;;;;16.04;48.40;100390.25;5025321;28;1169;-56
2023/04/15 07:41:01;;;;;;;;;;;;;;;16.65;49.60;100380.09;5035830;28;1023;-56
2023/04/15 07:43:26;;;;;;;;;;;;;;;16.22;49.12;100375.09;5031756;28;1175;-56
2023/04/15 07:45:52;;;;;;;;;;;;;;;16.51;49.51;100372.50;5022903;28;1243;-56
2023/04/15 07:48:18;;;;;;;;;;;;;;;16.64;50.02;100370.22;5033207;28;1107;-56
2023/04/15 07:50:43;;;;;;;;;;;;;;;16.21;49.60;100382.50;5023306;28;1060;-55
2023/04/15 07:53:09;;;;;;;;;;;;;;;15.99;49.08;100379.28;5034433;28;1918;-56
2023/04/15 07:55:34;;;;;;;;;;;;;;;16.95;49.67;100387.34;5023091;28;1100;-50
2023/04/15 07:58:00;;;;;;;;;;;;;;;16.39;50.14;100391.22;5035672;28;1221;-51
2023/04/15 08:00:25;;;;;;;;;;;;;;;16.19;48.95;100392.94;5033736;28;1286;-56
2023/04/15 08:02:52;;;;;;;;;;;;;;;16.37;49.25;100405.22;5017289;28;1100;-51
2023/04/15 08:05:18;;;;;;;;;;;;;;;16.55;49.84;100397.44;5032101;28;1175;-52
2023/04/15 08:07:44;;;;;;;;;;;;;;;16.48;49.98;100406.00;5029502;28;1054;-56
2023/04/15 08:10:10;;;;;;;;;;;;;;;17.85;49.43;100392.59;5031415;28;1182;-48
2023/04/15 08:12:36;;;;;;;;;;;;;;;16.74;50.46;100392.13;5027135;28;1914;-57
2023/04/15 08:15:02;;;;;;;;;;;;;;;16.45;49.61;100392.00;5031463;28;1039;-57
2023/04/15 08:17:27;;;;;;;;;;;;;;;16.93;50.52;100390.38;5026945;28;1182;-57
2023/04/15 08:19:53;;;;;;;;;;;;;;;16.68;50.12;100393.28;5031528;28;1011;-57
2023/04/15 08:22:18;;;;;;;;;;;;;;;16.36;49.60;100392.59;5033685;28;1126;-60
2023/04/15 08:24:44;;;;;;;;;;;;;;;16.22;48.70;100378.66;5031321;28;1004;-57
2023/04/15 08:27:10;;;;;;;;;;;;;;;16.17;47.82;100380.59;5034887;28;1061;-57
2023/04/15 08:29:35;;;;;;;;;;;;;;;16.00;47.76;100370.78;5018504;28;1095;-58
2023/04/15 08:32:01;;;;;;;;;;;;;;;16.82;49.49;100364.06;5036016;28;1909;-55
2023/04/15 08:34:27;;;;;;;;;;;;;;;16.21;49.42;100363.28;5032428;28;1139;-54
2023/04/15 08:36:52;;;;;;;;;;;;;;;16.11;48.48;100379.81;5027284;28;1115;-51
2023/04/15 08:39:18;;;;;;;;;;;;;;;16.04;47.74;100385.56;5029294;28;1190;-55
2023/04/15 08:41:51;;;;;;;;;;;;;;;16.17;48.21;100397.91;5024097;28;1123;-54
2023/04/15 08:44:16;;;;;;;;;;;;;;;16.51;49.35;100397.19;5031729;28;1202;-51
2023/04/15 08:46:43;;;;;;;;;;;;;;;16.32;48.69;100399.75;5025067;28;1056;-53
2023/04/15 08:49:10;;;;;;;;;;;;;;;15.94;48.60;100391.09;5023162;28;994;-55
2023/04/15 08:51:36;;;;;;;;;;;;;;;16.44;48.76;100407.66;5025930;28;1901;-55
2023/04/15 08:54:02;;;;;;;;;;;;;;;16.35;49.01;100401.91;5024815;28;1097;-55
2023/04/15 08:56:27;;;;;;;;;;;;;;;16.26;48.89;100392.66;5028397;28;1135;-54
2023/04/15 08:58:53;;;;;;;;;;;;;;;17.28;49.24;100406.88;5024513;28;1091;-56
2023/04/15 09:01:18;;;;;;;;;;;;;;;16.56;49.50;100402.66;5037454;28;1070;-51
2023/04/15 09:03:44;;;;;;;;;;;;;;;16.18;49.20;100409.69;5027571;28;1012;-50
2023/04/15 09:06:10;;;;;;;;;;;;;;;16.20;48.13;100399.22;5029692;28;1116;-52
2023/04/15 09:08:36;;;;;;;;;;;;;;;16.07;47.79;100398.75;5031353;28;1055;-49
2023/04/15 09:11:02;;;;;;;;;;;;;;;16.96;49.24;100396.38;5029674;28;1150;-53
2023/04/15 09:13:28;;;;;;;;;;;;;;;16.35;49.51;100407.41;5030150;28;1970;-53
2023/04/15 09:15:54;;;;;;;;;;;;;;;16.14;48.73;100403.91;5039151;28;1026;-54
2023/04/15 09:18:29;;;;;;;;;;;;;;;16.02;47.86;100406.16;5033011;28;1004;-54
2023/04/15 09:20:55;;;;;;;;;;;;;;;16.00;47.47;100411.09;5039290;28;1131;-51
2023/04/15 09:23:21;;;;;;;;;;;;;;;16.64;48.97;100414.16;5025855;28;1154;-53
2023/04/15 09:25:48;;;;;;;;;;;;;;;16.17;48.45;100406.13;5038752;28;1027;-55
2023/04/15 09:28:13;;;;;;;;;;;;;;;17.71;49.06;100409.81;5031903;28;1119;-52
2023/04/15 09:30:39;;;;;;;;;;;;;;;16.78;49.86;100404.19;5029525;28;1055;-53
2023/04/15 09:33:07;;;;;;;;;;;;;;;16.49;49.32;100401.31;5020626;28;1913;-56
2023/04/15 09:35:32;;;;;;;;;;;;;;;16.35;48.25;100399.16;5037533;28;1079;-56
2023/04/15 09:38:08;;;;;;;;;;;;;;;16.67;49.05;100408.91;5038798;28;1054;-56
2023/04/15 09:40:34;;;;;;;;;;;;;;;16.58;49.42;100407.88;5025611;28;1131;-48
2023/04/15 09:43:03;;;;;;;;;;;;;;;16.36;48.46;100414.53;5037273;28;1066;-48
2023/04/15 09:45:29;;;;;;;;;;;;;;;17.17;49.21;100405.34;5038514;28;1524;-56
2023/04/15 09:47:56;;;;;;;;;;;;;;;16.72;49.54;100408.06;5033268;28;1035;-50
2023/04/15 09:50:21;;;;;;;;;;;;;;;16.44;48.78;100415.91;5031330;28;1044;-48
2023/04/15 09:52:47;;;;;;;;;;;;;;;16.57;49.09;100397.97;5037019;28;1914;-51
2023/04/15 09:55:13;;;;;;;;;;;;;;;16.85;49.38;100406.63;5026534;28;763;-51
2023/04/15 09:57:46;;;;;;;;;;;;;;;16.41;49.20;100410.94;5037428;28;1023;-50
2023/04/15 10:00:11;;;;;;;;;;;;;;;16.25;48.43;100408.25;5037909;28;1085;-50
2023/04/15 10:02:38;;;;;;;;;;;;;;;16.79;49.48;100419.56;5037846;28;1023;-53
2023/04/15 10:05:04;;;;;;;;;;;;;;;16.48;48.86;100413.38;5037498;28;1055;-49
2023/04/15 10:07:30;;;;;;;;;;;;;;;16.30;48.71;100398.38;5038087;28;1113;-49
2023/04/15 10:09:56;;;;;;;;;;;;;;;17.24;49.01;100403.06;5024373;28;1165;-55
2023/04/15 10:12:22;;;;;;;;;;;;;;;16.54;49.62;100404.03;5029485;28;1909;-61
2023/04/15 10:14:48;;;;;;;;;;;;;;;16.36;48.55;100403.56;5037726;28;851;-61
2023/04/15 10:17:14;;;;;;;;;;;;;;;16.28;47.71;100398.66;5024568;28;1035;-60
2023/04/15 10:19:40;;;;;;;;;;;;;;;17.13;48.65;100407.00;5011740;28;1314;-58
2023/04/15 10:22:06;;;;;;;;;;;;;;;16.45;49.34;100406.53;5019001;28;1151;-56
2023/04/15 10:24:32;;;;;;;;;;;;;;;16.31;48.54;100397.28;5025571;28;1095;-55
2023/04/15 10:27:00;;;;;;;;;;;;;;;16.19;48.15;100398.44;5026041;28;877;-56
2023/04/15 10:29:29;;;;;;;;;;;;;;;16.18;47.26;100406.94;5021592;28;1159;-59
2023/04/15 10:31:55;;;;;;;;;;;;;;;16.20;47.52;100400.06;5034606;28;1902;-59
2023/04/15 10:34:20;;;;;;;;;;;;;;;16.83;48.77;100395.06;5037203;28;1066;-55
2023/04/15 10:36:46;;;;;;;;;;;;;;;16.39;48.66;100392.03;5035027;28;1217;-58
2023/04/15 10:39:30;;;;;;;;;;;;;;;16.93;48.71;100404.09;5036902;28;920;-57
2023/04/15 10:42:05;;;;;;;;;;;;;;;16.58;49.09;100394.16;5037302;28;1131;-56
2023/04/15 10:44:31;;;;;;;;;;;;;;;16.25;48.55;100385.50;5033429;28;1173;-54
2023/04/15 10:46:57;;;;;;;;;;;;;;;16.10;48.27;100391.06;5018995;28;1175;-52
2023/04/15 10:49:25;;;;;;;;;;;;;;;16.69;48.71;100397.63;5046623;28;1167;-55
2023/04/15 10:51:52;;;;;;;;;;;;;;;16.60;49.16;100398.22;5020030;28;1999;-51
2023/04/15 10:54:23;;;;;;;;;;;;;;;16.42;48.29;100391.47;5035614;28;1005;-51
2023/04/15 10:57:05;;;;;;;;;;;;;;;16.19;48.02;100383.91;5029083;28;1010;-51
2023/04/15 10:59:31;;;;;;;;;;;;;;;16.07;47.72;100393.28;5024839;28;957;-52
2023/04/15 11:02:00;;;;;;;;;;;;;;;17.12;48.21;100399.88;5028846;28;1030;-55
2023/04/15 11:04:56;;;;;;;;;;;;;;;16.47;48.96;100392.56;5023562;28;1284;-54
2023/04/15 11:07:34;;;;;;;;;;;;;;;16.19;47.93;100384.72;5004498;28;1733;-57
2023/04/15 11:10:00;;;;;;;;;;;;;;;16.56;48.67;100383.44;5011473;28;1174;-54
2023/04/15 11:12:35;;;;;;;;;;;;;;;16.47;48.83;100379.66;5024521;28;1907;-52
2023/04/15 11:15:19;;;;;;;;;;;;;;;16.21;48.46;100389.91;5027844;28;893;-50
2023/04/15 11:17:45;;;;;;;;;;;;;;;16.76;48.57;100384.44;5012377;28;1151;-50
2023/04/15 11:20:13;;;;;;;;;;;;;;;16.66;48.95;100385.31;4997605;28;1274;-50
2023/04/15 11:22:46;;;;;;;;;;;;;;;16.29;48.45;100391.25;5004805;28;1234;-46
2023/04/15 11:25:21;;;;;;;;;;;;;;;16.18;48.01;100395.97;5021541;28;1278;-50
2023/04/15 11:27:46;;;;;;;;;;;;;;;16.68;48.18;100396.81;5019997;28;993;-48
2023/04/15 11:30:38;;;;;;;;;;;;;;;16.47;48.79;100387.06;5017089;28;1184;-48
2023/04/15 11:33:07;;;;;;;;;;;;;;;16.18;48.30;100394.03;5015331;28;1993;-50
2023/04/15 11:35:33;;;;;;;;;;;;;;;16.28;48.43;100382.19;5016982;28;1195;-51
2023/04/15 11:38:02;;;;;;;;;;;;;;;16.52;48.69;100378.78;5017027;28;1259;-47
2023/04/15 11:40:28;;;;;;;;;;;;;;;16.25;48.44;100391.81;5016695;28;1203;-52
2023/04/15 11:43:08;;;;;;;;;;;;;;;16.16;47.86;100381.69;5032530;28;1134;-50
2023/04/15 11:45:34;;;;;;;;;;;;;;;17.37;48.00;100382.34;5036232;28;1225;-49
2023/04/15 11:48:07;;;;;;;;;;;;;;;16.53;49.07;100385.94;5031588;28;1110;-47
2023/04/15 11:50:33;;;;;;;;;;;;;;;16.31;48.35;100389.03;5028389;28;1091;-50
2023/04/15 11:53:03;;;;;;;;;;;;;;;16.06;48.14;100385.28;5023252;28;1979;-49
2023/04/15 11:55:29;;;;;;;;;;;;;;;16.00;47.69;100379.00;5036419;28;1050;-49
2023/04/15 11:58:11;;;;;;;;;;;;;;;15.97;47.25;100374.09;5023203;28;1155;-50
2023/04/15 12:00:36;;;;;;;;;;;;;;;15.94;46.85;100374.66;5033741;28;1007;-47
2023/04/15 12:03:11;;;;;;;;;;;;;;;16.96;47.65;100372.50;5024976;28;860;-47
2023/04/15 12:05:57;;;;;;;;;;;;;;;16.19;48.79;100364.69;5023290;28;1147;-47
2023/04/15 12:08:23;;;;;;;;;;;;;;;16.06;47.85;100366.94;5036090;28;2080;-49
2023/04/15 12:10:48;;;;;;;;;;;;;;;17.02;48.10;100365.88;5029649;28;983;-50
2023/04/15 12:13:14;;;;;;;;;;;;;;;16.34;49.10;100367.38;5027760;28;1990;-50
2023/04/15 12:15:39;;;;;;;;;;;;;;;16.26;48.02;100362.47;5021272;28;1100;-49
2023/04/15 12:18:05;;;;;;;;;;;;;;;16.34;48.48;100361.88;5036027;28;1027;-48
2023/04/15 12:20:30;;;;;;;;;;;;;;;16.65;48.70;100361.72;5036221;28;1039;-47
2023/04/15 12:23:04;;;;;;;;;;;;;;;16.31;48.49;100354.19;5023595;28;1548;-49
2023/04/15 12:25:34;;;;;;;;;;;;;;;16.17;47.83;100351.25;5006246;28;1020;-49
2023/04/15 12:27:59;;;;;;;;;;;;;;;16.04;47.58;100362.81;5031234;28;1076;-50
2023/04/15 12:30:25;;;;;;;;;;;;;;;16.08;46.97;100352.94;5028155;28;1108;-49
2023/04/15 12:32:51;;;;;;;;;;;;;;;17.21;47.68;100357.75;5025575;28;1913;-47
2023/04/15 12:35:18;;;;;;;;;;;;;;;16.37;48.94;100358.56;5039830;28;1019;-47
2023/04/15 12:37:43;;;;;;;;;;;;;;;16.53;48.96;100364.78;5026612;28;1182;-43
2023/04/15 12:40:10;;;;;;;;;;;;;;;16.86;49.26;100364.31;5031035;28;910;-47
2023/04/15 12:42:35;;;;;;;;;;;;;;;16.47;48.71;100359.63;5032972;28;1287;-50
2023/04/15 12:45:01;;;;;;;;;;;;;;;16.29;48.44;100359.16;5027695;28;1047;-43